La Sal, UT

5:27 AM MDT on July 26, 2014 (GMT -0600)
MesoWest LASAL MOUNTAIN UT US SNOTEL (MLSMU1) Elev 9850 ft | 38.48 °N, 109.27 °W | Change Station

Current weather conditions updated 14 hours ago

Partly Cloudy
Partly Cloudy
73 °F
Feels Like 73 °F
N
7
Wind Variable Wind from SSE
Gusts 10 mph

Today is forecast to be Much Warmer than yesterday.

Today
High -- | Low -- °F
--% Chance of Precip.
Yesterday
High -- | Low -- °F
Precip. -- in
6:13 AM 8:32 PM
Waning Crescent, 0% visible
Pressure 30.25 in
Visibility 10.0 miles
Clouds Clear
Dew Point 43 °F
Humidity 31%
Rainfall -999.00 in
Snow Depth Not available.
UV 0 out of 12
Pollen 5.90 out of 12
Air Quality Not available.
Flu Activity Not available.
METAR KAIB 261115Z AUTO 12006KT 10SM CLR 17/08 A3025 RMK AO2

More Conditions Fewer Conditions

Pressure 30.25 in
Visibility 10.0 miles
Clouds Clear
Dew Point 43 °F
Humidity 31%
Rainfall -999.00 in
Snow Depth Not available.
UV 0 out of 12
Pollen 5.90 out of 12
Air Quality Not available.
Flu Activity Not available.
METAR KAIB 261115Z AUTO 12006KT 10SM CLR 17/08 A3025 RMK AO2

More Conditions Fewer Conditions

10-Day Weather Forecast

Almanac

Astronomy

Jul. 26, 2014 Rise Set
Actual Time 6:13 AM MDT 8:32 PM MDT
Civil Twilight 5:43 AM MDT 9:02 PM MDT
Nautical Twilight 5:07 AM MDT 9:39 PM MDT
Astronomical Twilight 4:26 AM MDT 10:19 PM MDT
Moon 6:08 AM MDT 8:10 PM MDT
Length of Visible Light 15h 18m
Length of Day
14h 18m
Tomorrow will be 1m 43s shorter.
Waning Crescent, 0% of the Moon is Illuminated
Today
Waning Crescent
Jul 26
New
Aug 3
First Quarter
Aug 10
Full
Aug 17
Last Quarter

Today's Extremes

State Highs State Lows

Community

WunderPhotos

Upload Photos

1,737,538 photos uploaded!

Nearby

Snow Depth

Station Depth Elevation
Buck Flat 0 in 9800 ft
Black Flat-U.M. Creek 0 in 9400 ft
Seeley Creek 0 in 10000 ft
Gooseberry R.S. 0 in 7920 ft
Clayton Springs 0 in 10000 ft

Earthquake Activity

City Distance Mag. Time & Date
No recent earthquake activity has been reported nearby.
Minimum magnitude displayed is 2.5.

Coastal Water Temperatures

Place Temperature
No Stations Reporting

Nearby Weather Stations

Station Location Temp. Heat Index Dew Point Humidity Wind Precip. Elev Updated Type
Pack Creek, Moab, UT 73.8 °F 77 °F 45 °F 36% East  at  4.9 mph 0.00 in / hr 6173 ft 5:27 AM MDT Rapid Fire
MesoWest HARMS WAY , La Sal, UT 65 °F - 42 °F 43% NNE  at  6 mph 0.00 in / hr 7048 ft 4:00 AM MDT MADIS
RAWS BIG INDIAN VALLEY UT, La Sal, UT 71 °F 77 °F 43 °F 36% SE  at  3 mph 0.00 in / hr 6959 ft 4:20 AM MDT MADIS
Bridger Jack Mesa, Moab, UT 70.5 °F 77 °F 45 °F 40% West  at  4.7 mph - / hr 5656 ft 5:19 AM MDT Normal
Castle Valley, Castle Valley, UT 70.7 °F 77 °F 47 °F 43% NE  at  0.0 mph - / hr 4833 ft 5:16 AM MDT Normal
Monte Vista, Moab, UT 73.0 °F 77 °F 50 °F 44% SSE  at  0.0 mph - / hr 4196 ft 5:16 AM MDT Normal
Canon Vista, Moab, UT 73.5 °F 77 °F 51 °F 46% SE  at  0.0 mph 0.00 in / hr 4183 ft 5:27 AM MDT Rapid Fire

Show More Stations Show Fewer Stations